Time;durP1;ratioP1;P1;durP2;ratioP2;P2;SDS_P1;SDS_P2;PMS_P1;PMS_P2;Temp;Humidity;BMP_temperature;BMP_pressure;BME280_temperature;BME280_humidity;BME280_pressure;Samples;Min_cycle;Max_cycle;Signal;HPM_P1;HPM_P2
2022/08/22 00:01:48;;;;;;;4.90;3.42;;;;;;;;;;5063977;28;20193;-70
2022/08/22 00:04:20;;;;;;;3.90;3.28;;;;;;;;;;5064151;28;20235;-69
2022/08/22 00:06:52;;;;;;;4.30;3.00;;;;;;;;;;5063691;28;20217;-70
2022/08/22 00:09:28;;;;;;;8.02;3.47;;;;;;;;;;5063335;28;20463;-70
2022/08/22 00:11:58;;;;;;;5.32;3.30;;;;;;;;;;5063582;28;20244;-70
2022/08/22 00:14:31;;;;;;;4.03;3.60;;;;;;;;;;5063819;28;20392;-69
2022/08/22 00:17:00;;;;;;;6.18;3.38;;;;;;;;;;5063660;28;20431;-70
2022/08/22 00:19:31;;;;;;;5.93;3.72;;;;;;;;;;5063587;28;20228;-70
2022/08/22 00:22:01;;;;;;;4.63;3.35;;;;;;;;;;5063438;28;20228;-70
2022/08/22 00:24:30;;;;;;;3.95;2.90;;;;;;;;;;5063484;28;20243;-70
2022/08/22 00:27:00;;;;;;;4.28;3.35;;;;;;;;;;5063193;28;20201;-70
2022/08/22 00:29:30;;;;;;;5.60;3.88;;;;;;;;;;5063611;28;20197;-69
2022/08/22 00:32:00;;;;;;;3.55;3.35;;;;;;;;;;5063572;28;20262;-70
2022/08/22 00:34:32;;;;;;;3.75;3.45;;;;;;;;;;5063304;28;20231;-70
2022/08/22 00:37:03;;;;;;;3.83;3.40;;;;;;;;;;5062993;28;20200;-69
2022/08/22 00:39:33;;;;;;;3.22;3.03;;;;;;;;;;5063397;28;20235;-70
2022/08/22 00:42:14;;;;;;;3.28;3.10;;;;;;;;;;5063133;28;20221;-70
2022/08/22 00:44:56;;;;;;;3.70;3.17;;;;;;;;;;5061449;28;20270;-70
2022/08/22 00:47:30;;;;;;;3.22;3.03;;;;;;;;;;5062866;28;20235;-69
2022/08/22 00:50:04;;;;;;;2.83;2.72;;;;;;;;;;5063274;28;20197;-70
2022/08/22 00:52:48;;;;;;;3.38;3.08;;;;;;;;;;5063188;28;20192;-69
2022/08/22 00:55:26;;;;;;;3.38;3.15;;;;;;;;;;5062821;28;20496;-70
2022/08/22 00:58:02;;;;;;;3.10;2.90;;;;;;;;;;5062548;28;20530;-69
2022/08/22 01:00:30;;;;;;;4.05;3.30;;;;;;;;;;5062847;28;20201;-70
2022/08/22 01:03:07;;;;;;;3.42;3.17;;;;;;;;;;5062825;28;20196;-69
2022/08/22 01:05:39;;;;;;;3.35;3.25;;;;;;;;;;5062819;28;20439;-70
2022/08/22 01:08:16;;;;;;;4.22;3.22;;;;;;;;;;5062290;28;20240;-70
2022/08/22 01:10:50;;;;;;;5.80;3.40;;;;;;;;;;5062825;28;20575;-70
2022/08/22 01:13:27;;;;;;;3.95;3.58;;;;;;;;;;5062539;28;20197;-69
2022/08/22 01:15:59;;;;;;;5.25;3.50;;;;;;;;;;5062456;28;20204;-70
2022/08/22 01:18:42;;;;;;;3.55;3.30;;;;;;;;;;5062513;28;20197;-69
2022/08/22 01:21:27;;;;;;;4.03;3.33;;;;;;;;;;5062712;28;20239;-69
2022/08/22 01:24:08;;;;;;;6.38;3.58;;;;;;;;;;5062564;28;20213;-70
2022/08/22 01:26:53;;;;;;;4.93;3.40;;;;;;;;;;5061697;28;20197;-70
2022/08/22 01:29:45;;;;;;;4.18;3.55;;;;;;;;;;5062281;28;20219;-70
2022/08/22 01:32:34;;;;;;;4.28;3.88;;;;;;;;;;5062446;28;20275;-70
2022/08/22 01:35:14;;;;;;;7.97;3.63;;;;;;;;;;5062304;28;20197;-70
2022/08/22 01:37:54;;;;;;;5.82;4.00;;;;;;;;;;5062305;28;20223;-69
2022/08/22 01:40:38;;;;;;;3.90;3.60;;;;;;;;;;5062394;28;20509;-70
2022/08/22 01:43:09;;;;;;;6.65;3.88;;;;;;;;;;5061916;28;20196;-70
2022/08/22 01:45:57;;;;;;;3.50;3.28;;;;;;;;;;5062313;28;20197;-70
2022/08/22 01:48:26;;;;;;;4.30;3.80;;;;;;;;;;5058581;28;20197;-70
2022/08/22 01:50:56;;;;;;;4.53;3.30;;;;;;;;;;5062009;28;20221;-70
2022/08/22 01:53:27;;;;;;;3.85;3.45;;;;;;;;;;5061944;28;20211;-70
2022/08/22 01:55:57;;;;;;;3.65;3.38;;;;;;;;;;5062121;28;20323;-69
2022/08/22 01:58:25;;;;;;;8.15;3.85;;;;;;;;;;5062162;28;20204;-70
2022/08/22 02:00:58;;;;;;;5.32;3.67;;;;;;;;;;5062013;28;20208;-70
2022/08/22 02:03:28;;;;;;;4.40;3.83;;;;;;;;;;5061977;28;20197;-69
2022/08/22 02:06:02;;;;;;;5.82;4.03;;;;;;;;;;5061725;28;20300;-69
2022/08/22 02:08:33;;;;;;;3.85;3.55;;;;;;;;;;5061876;28;20211;-69
2022/08/22 02:11:02;;;;;;;5.32;3.75;;;;;;;;;;5062001;28;20221;-70
2022/08/22 02:13:33;;;;;;;3.85;3.38;;;;;;;;;;5061855;28;20204;-70
2022/08/22 02:16:06;;;;;;;8.40;4.20;;;;;;;;;;5061610;28;20203;-70
2022/08/22 02:18:41;;;;;;;4.32;3.90;;;;;;;;;;5062130;28;20389;-70
2022/08/22 02:21:14;;;;;;;5.25;3.97;;;;;;;;;;5061987;28;20291;-69
2022/08/22 02:23:46;;;;;;;6.95;4.07;;;;;;;;;;5061838;28;20197;-70
2022/08/22 02:26:15;;;;;;;5.30;4.03;;;;;;;;;;5061654;28;20271;-70
2022/08/22 02:28:45;;;;;;;5.38;3.60;;;;;;;;;;5061667;28;20205;-70
2022/08/22 02:31:13;;;;;;;4.10;3.80;;;;;;;;;;5061827;28;20224;-70
2022/08/22 02:33:46;;;;;;;3.38;3.17;;;;;;;;;;5062006;28;20200;-70
2022/08/22 02:36:16;;;;;;;5.60;3.95;;;;;;;;;;5061660;28;20197;-70
2022/08/22 02:38:47;;;;;;;6.55;3.58;;;;;;;;;;5062166;28;20197;-69
2022/08/22 02:41:16;;;;;;;3.63;3.42;;;;;;;;;;5065511;28;20387;-70
2022/08/22 02:43:46;;;;;;;6.72;3.92;;;;;;;;;;5065737;28;20203;-70
2022/08/22 02:46:15;;;;;;;4.72;3.78;;;;;;;;;;5065489;28;20208;-69
2022/08/22 02:48:44;;;;;;;4.32;3.30;;;;;;;;;;5065603;28;20395;-69
2022/08/22 02:51:15;;;;;;;6.07;3.60;;;;;;;;;;5065463;28;20278;-69
2022/08/22 02:53:53;;;;;;;5.30;4.22;;;;;;;;;;5065454;28;20311;-70
2022/08/22 02:56:21;;;;;;;6.03;3.90;;;;;;;;;;5065229;28;20276;-69
2022/08/22 02:58:49;;;;;;;7.80;4.22;;;;;;;;;;5065373;28;20405;-69
2022/08/22 03:01:20;;;;;;;5.18;3.65;;;;;;;;;;5065322;28;20200;-69
2022/08/22 03:03:47;;;;;;;5.38;3.92;;;;;;;;;;5065280;28;20370;-69
2022/08/22 03:06:31;;;;;;;4.47;3.97;;;;;;;;;;5064694;28;20220;-69
2022/08/22 03:09:02;;;;;;;4.53;4.07;;;;;;;;;;5065000;28;20201;-69
2022/08/22 03:11:31;;;;;;;4.22;3.83;;;;;;;;;;5064961;28;20224;-69
2022/08/22 03:14:02;;;;;;;4.13;3.40;;;;;;;;;;5065286;28;20204;-69
2022/08/22 03:16:33;;;;;;;4.10;3.80;;;;;;;;;;5064390;28;20204;-69
2022/08/22 03:19:02;;;;;;;4.25;3.28;;;;;;;;;;5065038;28;20205;-69
2022/08/22 03:21:32;;;;;;;4.40;3.33;;;;;;;;;;5064866;28;20392;-70
2022/08/22 03:24:02;;;;;;;4.15;3.75;;;;;;;;;;5064901;28;20208;-69
2022/08/22 03:26:35;;;;;;;4.22;3.78;;;;;;;;;;5064519;28;20204;-70
2022/08/22 03:29:04;;;;;;;8.35;3.45;;;;;;;;;;5064521;28;20197;-70
2022/08/22 03:31:32;;;;;;;3.88;3.55;;;;;;;;;;5064403;28;20225;-70
2022/08/22 03:34:19;;;;;;;6.55;3.85;;;;;;;;;;5064745;28;20204;-70
2022/08/22 03:36:46;;;;;;;5.38;3.67;;;;;;;;;;5064299;28;20197;-69
2022/08/22 03:39:15;;;;;;;3.80;3.50;;;;;;;;;;5064444;28;20268;-69
2022/08/22 03:42:03;;;;;;;4.05;3.70;;;;;;;;;;5064224;28;20193;-69
2022/08/22 03:44:40;;;;;;;5.53;3.65;;;;;;;;;;5060669;28;20402;-70
2022/08/22 03:47:21;;;;;;;4.13;3.72;;;;;;;;;;5064055;28;20441;-69
2022/08/22 03:50:04;;;;;;;4.35;3.97;;;;;;;;;;5063831;28;20408;-69
2022/08/22 03:53:05;;;;;;;5.53;3.80;;;;;;;;;;5064393;28;20221;-70
2022/08/22 03:55:34;;;;;;;3.97;3.58;;;;;;;;;;5063954;28;20236;-70
2022/08/22 03:58:10;;;;;;;5.93;3.50;;;;;;;;;;5063936;28;20474;-70
2022/08/22 04:01:05;;;;;;;4.68;3.97;;;;;;;;;;5064388;28;20496;-69
2022/08/22 04:03:55;;;;;;;7.10;3.50;;;;;;;;;;5064167;28;20197;-69
2022/08/22 04:06:40;;;;;;;5.43;3.33;;;;;;;;;;5063644;28;20255;-69
2022/08/22 04:09:22;;;;;;;3.92;3.55;;;;;;;;;;5064121;28;20201;-69
2022/08/22 04:11:58;;;;;;;4.60;3.78;;;;;;;;;;5063777;28;20213;-69
2022/08/22 04:14:36;;;;;;;5.03;4.00;;;;;;;;;;5063823;28;20243;-69
2022/08/22 04:17:26;;;;;;;5.70;3.92;;;;;;;;;;5063336;28;20196;-69
2022/08/22 04:19:59;;;;;;;4.03;3.75;;;;;;;;;;5063936;28;20201;-69
2022/08/22 04:22:33;;;;;;;4.47;4.05;;;;;;;;;;5063639;28;20199;-69
2022/08/22 04:25:01;;;;;;;4.38;4.07;;;;;;;;;;5063558;28;20204;-69
2022/08/22 04:27:29;;;;;;;4.90;4.25;;;;;;;;;;5063231;28;20219;-69
2022/08/22 04:29:58;;;;;;;7.97;4.68;;;;;;;;;;5063698;28;20197;-69
2022/08/22 04:32:29;;;;;;;4.47;4.10;;;;;;;;;;5063677;28;20224;-69
2022/08/22 04:34:56;;;;;;;4.55;4.15;;;;;;;;;;5063422;28;20197;-69
2022/08/22 04:37:25;;;;;;;8.32;3.95;;;;;;;;;;5063143;28;20201;-69
2022/08/22 04:39:53;;;;;;;4.70;4.28;;;;;;;;;;5063307;28;20213;-69
2022/08/22 04:42:22;;;;;;;4.55;3.90;;;;;;;;;;5063462;28;20369;-69
2022/08/22 04:44:52;;;;;;;7.63;4.40;;;;;;;;;;5063310;28;20197;-69
2022/08/22 04:47:24;;;;;;;4.35;3.95;;;;;;;;;;5063047;28;20198;-69
2022/08/22 04:49:57;;;;;;;8.10;4.20;;;;;;;;;;5063193;28;20201;-69
2022/08/22 04:52:27;;;;;;;6.15;4.30;;;;;;;;;;5062970;28;20403;-69
2022/08/22 04:54:57;;;;;;;4.20;3.75;;;;;;;;;;5063185;28;20204;-69
2022/08/22 04:57:27;;;;;;;4.72;4.32;;;;;;;;;;5062681;28;20209;-69
2022/08/22 04:59:57;;;;;;;5.03;4.43;;;;;;;;;;5063004;28;20197;-69
2022/08/22 05:02:26;;;;;;;4.60;4.13;;;;;;;;;;5062305;28;20197;-69
2022/08/22 05:04:57;;;;;;;5.88;4.30;;;;;;;;;;5062615;28;20326;-69
2022/08/22 05:07:25;;;;;;;7.53;4.13;;;;;;;;;;5062819;28;20513;-69
2022/08/22 05:09:55;;;;;;;5.32;4.10;;;;;;;;;;5062781;28;20211;-69
2022/08/22 05:12:23;;;;;;;4.50;4.10;;;;;;;;;;5062339;28;20476;-69
2022/08/22 05:14:51;;;;;;;4.82;4.50;;;;;;;;;;5062709;28;20426;-69
2022/08/22 05:17:21;;;;;;;5.47;4.45;;;;;;;;;;5062046;28;20205;-69
2022/08/22 05:19:50;;;;;;;4.50;4.10;;;;;;;;;;5062322;28;20516;-69
2022/08/22 05:22:20;;;;;;;4.55;3.97;;;;;;;;;;5062439;28;20193;-69
2022/08/22 05:24:47;;;;;;;4.82;4.07;;;;;;;;;;5062397;28;20197;-69
2022/08/22 05:27:15;;;;;;;4.18;3.88;;;;;;;;;;5061928;28;20319;-69
2022/08/22 05:29:45;;;;;;;6.43;4.50;;;;;;;;;;5061941;28;20279;-69
2022/08/22 05:32:15;;;;;;;5.13;4.55;;;;;;;;;;5062176;28;20308;-69
2022/08/22 05:34:42;;;;;;;4.03;3.83;;;;;;;;;;5061934;28;20212;-69
2022/08/22 05:37:11;;;;;;;5.20;4.30;;;;;;;;;;5061635;28;20205;-69
2022/08/22 05:39:40;;;;;;;4.47;4.18;;;;;;;;;;5061830;28;20196;-69
2022/08/22 05:42:11;;;;;;;6.60;4.60;;;;;;;;;;5061668;28;20193;-67
2022/08/22 05:44:38;;;;;;;7.93;4.65;;;;;;;;;;5061668;28;20516;-67
2022/08/22 05:47:06;;;;;;;6.50;4.95;;;;;;;;;;5054560;28;20209;-61
2022/08/22 05:49:35;;;;;;;5.30;4.75;;;;;;;;;;5050476;28;20213;-62
2022/08/22 05:52:08;;;;;;;9.70;6.57;;;;;;;;;;5051754;28;20442;-60
2022/08/22 05:54:38;;;;;;;8.98;5.05;;;;;;;;;;5043743;28;20208;-62
2022/08/22 05:57:11;;;;;;;6.72;5.85;;;;;;;;;;5050375;28;20212;-62
2022/08/22 05:59:40;;;;;;;11.10;5.45;;;;;;;;;;5051333;28;20256;-61
2022/08/22 06:02:09;;;;;;;7.70;4.80;;;;;;;;;;5054098;28;20244;-61
2022/08/22 06:04:42;;;;;;;5.30;4.90;;;;;;;;;;5035297;28;20214;-62
2022/08/22 06:07:11;;;;;;;9.30;5.32;;;;;;;;;;5032395;28;20509;-62
2022/08/22 06:09:44;;;;;;;7.32;4.90;;;;;;;;;;5039243;28;20599;-61
2022/08/22 06:12:14;;;;;;;5.85;5.07;;;;;;;;;;5046691;28;20420;-61
2022/08/22 06:14:43;;;;;;;5.57;4.68;;;;;;;;;;5056724;28;20248;-60
2022/08/22 06:17:11;;;;;;;7.50;4.85;;;;;;;;;;5056792;28;20213;-60
2022/08/22 06:19:40;;;;;;;6.18;5.10;;;;;;;;;;5053071;28;20216;-62
2022/08/22 06:22:06;;;;;;;8.02;5.10;;;;;;;;;;5056954;28;20209;-62
2022/08/22 06:24:34;;;;;;;8.27;4.82;;;;;;;;;;5053431;28;20304;-63
2022/08/22 06:27:03;;;;;;;9.30;4.68;;;;;;;;;;5056497;28;20221;-62
2022/08/22 06:29:33;;;;;;;9.60;4.57;;;;;;;;;;5055435;28;20213;-62
2022/08/22 06:32:02;;;;;;;5.40;4.55;;;;;;;;;;5044592;28;20236;-62
2022/08/22 06:34:30;;;;;;;7.50;5.10;;;;;;;;;;5037344;28;20220;-62
2022/08/22 06:36:57;;;;;;;5.97;4.80;;;;;;;;;;5037526;28;20217;-63
2022/08/22 06:39:25;;;;;;;11.02;4.70;;;;;;;;;;5047290;28;20360;-62
2022/08/22 06:41:54;;;;;;;6.75;5.35;;;;;;;;;;5050184;28;20443;-62
2022/08/22 06:44:22;;;;;;;7.68;4.60;;;;;;;;;;5050408;28;20209;-63
2022/08/22 06:46:52;;;;;;;5.30;4.55;;;;;;;;;;5055077;28;20212;-62
2022/08/22 06:49:19;;;;;;;7.00;4.28;;;;;;;;;;5044001;28;20413;-62
2022/08/22 06:51:45;;;;;;;9.68;5.00;;;;;;;;;;5037832;28;20245;-63
2022/08/22 06:54:15;;;;;;;5.88;4.32;;;;;;;;;;5049081;28;20251;-62
2022/08/22 06:56:44;;;;;;;7.43;4.82;;;;;;;;;;5057046;28;20221;-61
2022/08/22 06:59:13;;;;;;;7.97;4.95;;;;;;;;;;5056512;28;20453;-62
2022/08/22 07:01:43;;;;;;;11.43;5.15;;;;;;;;;;5050975;28;20583;-62
2022/08/22 07:04:11;;;;;;;7.88;5.32;;;;;;;;;;5037831;28;20210;-62
2022/08/22 07:06:40;;;;;;;9.00;5.38;;;;;;;;;;5051805;28;20235;-61
2022/08/22 07:09:07;;;;;;;4.78;3.97;;;;;;;;;;5050753;28;20229;-62
2022/08/22 07:11:36;;;;;;;5.45;4.95;;;;;;;;;;5037232;28;20217;-62
2022/08/22 07:14:04;;;;;;;6.10;5.25;;;;;;;;;;5036840;28;20572;-62
2022/08/22 07:16:32;;;;;;;9.10;4.35;;;;;;;;;;5036686;28;20514;-62
2022/08/22 07:18:58;;;;;;;12.93;4.93;;;;;;;;;;5036689;28;20452;-62
2022/08/22 07:21:27;;;;;;;4.82;4.20;;;;;;;;;;5036640;28;20447;-62
2022/08/22 07:23:54;;;;;;;6.05;4.82;;;;;;;;;;5040790;28;20220;-62
2022/08/22 07:26:38;;;;;;;9.20;4.60;;;;;;;;;;5055256;28;20258;-62
2022/08/22 07:29:09;;;;;;;5.70;4.60;;;;;;;;;;5054596;28;20217;-62
2022/08/22 07:31:37;;;;;;;6.93;4.57;;;;;;;;;;5056099;28;20255;-62
2022/08/22 07:34:27;;;;;;;5.65;4.05;;;;;;;;;;5043094;28;20592;-61
2022/08/22 07:36:58;;;;;;;4.68;4.20;;;;;;;;;;5037631;28;20209;-62
2022/08/22 07:39:27;;;;;;;5.03;4.32;;;;;;;;;;5052282;28;20213;-61
2022/08/22 07:42:02;;;;;;;7.65;5.05;;;;;;;;;;5056356;28;20212;-61
2022/08/22 07:44:31;;;;;;;140.57;9.35;;;;;;;;;;5055844;28;20551;-64
2022/08/22 07:46:59;;;;;;;31.33;5.75;;;;;;;;;;5036185;28;20214;-64
2022/08/22 07:49:28;;;;;;;8.40;5.03;;;;;;;;;;5050378;28;20213;-65
2022/08/22 07:51:58;;;;;;;10.43;4.78;;;;;;;;;;5050240;28;20213;-65
2022/08/22 07:54:30;;;;;;;9.18;4.28;;;;;;;;;;5035821;28;20260;-64
2022/08/22 07:56:59;;;;;;;9.20;4.38;;;;;;;;;;5036252;28;20501;-62
2022/08/22 07:59:27;;;;;;;6.28;4.38;;;;;;;;;;5045035;28;20213;-62
2022/08/22 08:01:55;;;;;;;14.18;5.05;;;;;;;;;;5056064;28;20280;-63
2022/08/22 08:04:23;;;;;;;5.47;4.10;;;;;;;;;;5056540;28;20413;-62
2022/08/22 08:06:51;;;;;;;4.95;4.30;;;;;;;;;;5055608;28;20229;-63
2022/08/22 08:09:19;;;;;;;4.68;4.22;;;;;;;;;;5056137;28;20213;-63
2022/08/22 08:11:46;;;;;;;6.43;5.15;;;;;;;;;;5055825;28;20225;-62
2022/08/22 08:14:14;;;;;;;5.82;4.57;;;;;;;;;;5055321;28;20268;-62
2022/08/22 08:16:44;;;;;;;5.47;3.83;;;;;;;;;;5055172;28;20517;-64
2022/08/22 08:19:11;;;;;;;4.72;4.20;;;;;;;;;;5055702;28;20259;-61
2022/08/22 08:21:39;;;;;;;6.03;4.40;;;;;;;;;;5039496;28;20217;-61
2022/08/22 08:24:07;;;;;;;4.70;4.22;;;;;;;;;;5055823;28;20454;-62
2022/08/22 08:26:38;;;;;;;5.90;4.10;;;;;;;;;;5054710;28;20543;-61
2022/08/22 08:29:04;;;;;;;8.73;4.88;;;;;;;;;;5055619;28;20212;-62
2022/08/22 08:31:32;;;;;;;6.63;5.40;;;;;;;;;;5056142;28;20208;-61
2022/08/22 08:34:02;;;;;;;4.30;3.90;;;;;;;;;;5050297;28;20253;-63
2022/08/22 08:36:35;;;;;;;4.88;4.55;;;;;;;;;;5038703;28;20213;-62
2022/08/22 08:39:08;;;;;;;4.80;4.32;;;;;;;;;;5055214;28;20221;-62
2022/08/22 08:41:49;;;;;;;6.43;4.30;;;;;;;;;;5055094;28;20418;-62
2022/08/22 08:44:24;;;;;;;9.75;6.57;;;;;;;;;;5054573;28;20193;-61
2022/08/22 08:47:15;;;;;;;4.38;4.07;;;;;;;;;;5051524;28;20287;-62
2022/08/22 08:49:51;;;;;;;4.35;4.10;;;;;;;;;;5044784;28;20450;-61
2022/08/22 08:52:45;;;;;;;5.15;4.45;;;;;;;;;;5055431;28;20216;-62
2022/08/22 08:55:18;;;;;;;4.80;4.10;;;;;;;;;;5052384;28;20443;-62
2022/08/22 08:57:52;;;;;;;4.47;4.07;;;;;;;;;;5046321;28;20583;-63
2022/08/22 09:00:21;;;;;;;4.65;4.35;;;;;;;;;;5046886;28;20204;-62
2022/08/22 09:02:51;;;;;;;5.07;4.65;;;;;;;;;;5055771;28;20219;-62
2022/08/22 09:05:36;;;;;;;8.48;4.22;;;;;;;;;;5052003;28;20553;-62
2022/08/22 09:08:23;;;;;;;5.50;4.93;;;;;;;;;;5051991;28;20445;-62
2022/08/22 09:11:08;;;;;;;5.53;5.00;;;;;;;;;;5047980;28;20213;-62
2022/08/22 09:13:42;;;;;;;8.85;6.75;;;;;;;;;;5020982;28;20232;-62
2022/08/22 09:16:26;;;;;;;4.85;4.45;;;;;;;;;;5034617;28;20583;-63
2022/08/22 09:19:11;;;;;;;5.80;5.30;;;;;;;;;;5051329;28;20212;-62
2022/08/22 09:21:52;;;;;;;5.43;4.78;;;;;;;;;;5054287;28;20227;-63
2022/08/22 09:24:37;;;;;;;7.90;6.45;;;;;;;;;;5046814;28;20210;-62
2022/08/22 09:27:06;;;;;;;5.25;4.03;;;;;;;;;;5041812;28;20544;-62
2022/08/22 09:29:37;;;;;;;4.88;4.47;;;;;;;;;;5034230;28;20235;-63
2022/08/22 09:32:07;;;;;;;5.30;4.72;;;;;;;;;;5034612;28;20217;-62
2022/08/22 09:34:36;;;;;;;4.90;4.35;;;;;;;;;;5034183;28;20442;-63
2022/08/22 09:37:07;;;;;;;5.07;4.55;;;;;;;;;;5033467;28;20434;-64
2022/08/22 09:39:35;;;;;;;4.43;4.05;;;;;;;;;;5035314;28;20213;-63
2022/08/22 09:42:05;;;;;;;5.20;4.82;;;;;;;;;;5034012;28;20429;-62
2022/08/22 09:44:37;;;;;;;4.70;4.38;;;;;;;;;;5042463;28;20535;-63
2022/08/22 09:47:08;;;;;;;4.32;4.03;;;;;;;;;;5033250;28;20220;-63
2022/08/22 09:49:43;;;;;;;6.20;4.53;;;;;;;;;;5033549;28;20213;-62
2022/08/22 09:52:17;;;;;;;7.40;4.35;;;;;;;;;;5040993;28;20220;-62
2022/08/22 09:54:45;;;;;;;4.13;3.92;;;;;;;;;;5053458;28;20231;-62
2022/08/22 09:57:17;;;;;;;4.85;4.00;;;;;;;;;;5053176;28;20524;-61
2022/08/22 09:59:50;;;;;;;3.70;3.50;;;;;;;;;;5043020;28;20284;-64
2022/08/22 10:02:23;;;;;;;3.83;3.53;;;;;;;;;;5034045;28;20212;-63
2022/08/22 10:04:55;;;;;;;3.65;3.45;;;;;;;;;;5050583;28;20270;-62
2022/08/22 10:07:35;;;;;;;4.50;4.30;;;;;;;;;;5046175;28;20220;-62
2022/08/22 10:10:04;;;;;;;4.20;3.75;;;;;;;;;;5051697;28;20448;-62
2022/08/22 10:12:32;;;;;;;3.72;3.40;;;;;;;;;;5053707;28;20212;-63
2022/08/22 10:15:04;;;;;;;3.65;3.45;;;;;;;;;;5053951;28;20496;-63
2022/08/22 10:17:35;;;;;;;3.20;3.00;;;;;;;;;;5053018;28;20231;-63
2022/08/22 10:20:04;;;;;;;3.53;3.38;;;;;;;;;;5048254;28;20240;-62
2022/08/22 10:22:45;;;;;;;4.22;4.03;;;;;;;;;;5033788;28;20235;-63
2022/08/22 10:25:29;;;;;;;6.97;3.75;;;;;;;;;;5052898;28;20228;-64
2022/08/22 10:28:07;;;;;;;4.32;3.67;;;;;;;;;;5052691;28;20290;-63
2022/08/22 10:30:37;;;;;;;3.85;3.55;;;;;;;;;;5032706;28;20217;-64
2022/08/22 10:33:10;;;;;;;3.28;3.17;;;;;;;;;;5047196;28;20524;-63
2022/08/22 10:35:38;;;;;;;3.55;3.38;;;;;;;;;;5043599;28;20394;-64
2022/08/22 10:38:06;;;;;;;3.10;2.90;;;;;;;;;;5034270;28;20212;-64
2022/08/22 10:40:36;;;;;;;3.55;3.30;;;;;;;;;;5047709;28;20236;-64
2022/08/22 10:43:06;;;;;;;4.30;4.10;;;;;;;;;;5033617;28;20213;-63
2022/08/22 10:45:34;;;;;;;3.70;3.50;;;;;;;;;;5037620;28;20216;-64
2022/08/22 10:48:23;;;;;;;3.83;3.63;;;;;;;;;;5042059;28;20212;-64
2022/08/22 10:50:50;;;;;;;4.05;3.17;;;;;;;;;;5053709;28;20205;-64
2022/08/22 10:53:32;;;;;;;4.00;3.70;;;;;;;;;;5041587;28;20275;-64
2022/08/22 10:56:07;;;;;;;3.70;3.42;;;;;;;;;;5050789;28;20512;-64
2022/08/22 10:58:37;;;;;;;3.22;3.08;;;;;;;;;;5039018;28;20235;-64
2022/08/22 11:01:06;;;;;;;3.38;3.17;;;;;;;;;;5053605;28;20559;-64
2022/08/22 11:03:39;;;;;;;2.95;2.85;;;;;;;;;;5056991;28;20209;-64
2022/08/22 11:06:06;;;;;;;3.28;3.08;;;;;;;;;;5056806;28;20228;-63
2022/08/22 11:08:49;;;;;;;2.78;2.67;;;;;;;;;;5056517;28;20216;-64
2022/08/22 11:11:18;;;;;;;2.15;2.05;;;;;;;;;;5056193;28;20536;-63
2022/08/22 11:13:50;;;;;;;3.97;2.83;;;;;;;;;;5056130;28;20232;-64
2022/08/22 11:16:24;;;;;;;2.08;1.95;;;;;;;;;;5045869;28;20259;-64
2022/08/22 11:19:00;;;;;;;2.67;2.47;;;;;;;;;;5045328;28;20419;-64
2022/08/22 11:21:30;;;;;;;2.70;2.60;;;;;;;;;;5049190;28;20216;-64
2022/08/22 11:23:59;;;;;;;2.65;2.45;;;;;;;;;;5041104;28;20213;-64
2022/08/22 11:26:32;;;;;;;3.83;3.45;;;;;;;;;;5057069;28;20251;-64
2022/08/22 11:29:06;;;;;;;6.90;2.90;;;;;;;;;;5051234;28;20217;-64
2022/08/22 11:31:35;;;;;;;4.20;3.40;;;;;;;;;;5038188;28;20255;-64
2022/08/22 11:34:09;;;;;;;3.08;2.88;;;;;;;;;;5051376;28;20567;-64
2022/08/22 11:36:36;;;;;;;3.72;3.08;;;;;;;;;;5041771;28;20216;-64
2022/08/22 11:39:08;;;;;;;3.28;2.45;;;;;;;;;;5056486;28;20214;-64
2022/08/22 11:41:38;;;;;;;3.17;2.58;;;;;;;;;;5056574;28;20231;-64
2022/08/22 11:44:07;;;;;;;2.75;2.55;;;;;;;;;;5047901;28;20200;-64
2022/08/22 11:46:35;;;;;;;2.72;2.33;;;;;;;;;;5055567;28;20567;-64
2022/08/22 11:49:12;;;;;;;3.60;2.25;;;;;;;;;;5046463;28;20213;-64
2022/08/22 11:51:54;;;;;;;6.43;2.55;;;;;;;;;;5040513;28;20267;-64
2022/08/22 11:54:24;;;;;;;2.92;2.72;;;;;;;;;;5052565;28;20243;-64
2022/08/22 11:56:53;;;;;;;2.63;2.42;;;;;;;;;;5044048;28;20240;-64
2022/08/22 11:59:23;;;;;;;2.83;2.70;;;;;;;;;;5052210;28;20543;-64
2022/08/22 12:01:52;;;;;;;2.67;2.47;;;;;;;;;;5040479;28;20213;-64
2022/08/22 12:04:20;;;;;;;4.65;2.60;;;;;;;;;;5056644;28;20208;-63
2022/08/22 12:06:50;;;;;;;2.38;2.13;;;;;;;;;;5055729;28;20395;-63
2022/08/22 12:09:20;;;;;;;2.92;2.80;;;;;;;;;;5048467;28;20292;-64
2022/08/22 12:11:50;;;;;;;2.80;2.60;;;;;;;;;;5036027;28;20213;-63
2022/08/22 12:14:21;;;;;;;2.85;2.65;;;;;;;;;;5046887;28;20228;-63
2022/08/22 12:16:54;;;;;;;3.90;2.70;;;;;;;;;;5055167;28;20413;-63
2022/08/22 12:19:25;;;;;;;2.58;2.35;;;;;;;;;;5056557;28;20216;-65
2022/08/22 12:22:07;;;;;;;2.50;2.40;;;;;;;;;;5056476;28;20551;-63
2022/08/22 12:24:43;;;;;;;4.85;2.50;;;;;;;;;;5055146;28;20204;-65
2022/08/22 12:27:24;;;;;;;3.25;2.20;;;;;;;;;;5055172;28;20219;-63
2022/08/22 12:29:59;;;;;;;2.40;2.30;;;;;;;;;;5047912;28;20212;-64
2022/08/22 12:32:59;;;;;;;2.10;2.00;;;;;;;;;;5043405;28;20208;-63
2022/08/22 12:35:34;;;;;;;2.60;2.40;;;;;;;;;;5055484;28;20419;-63
2022/08/22 12:38:05;;;;;;;2.28;2.00;;;;;;;;;;5054614;28;20219;-64
2022/08/22 12:40:37;;;;;;;3.47;2.65;;;;;;;;;;5046075;28;20220;-64
2022/08/22 12:43:08;;;;;;;3.92;2.10;;;;;;;;;;5036051;28;20217;-63
2022/08/22 12:45:44;;;;;;;2.22;2.10;;;;;;;;;;5039052;28;20225;-64
2022/08/22 12:48:16;;;;;;;3.90;2.28;;;;;;;;;;5053271;28;20318;-64
2022/08/22 12:50:48;;;;;;;2.47;2.28;;;;;;;;;;5055478;28;20457;-64
2022/08/22 12:53:26;;;;;;;2.50;2.30;;;;;;;;;;5052007;28;20204;-65
2022/08/22 12:56:02;;;;;;;3.17;2.30;;;;;;;;;;5051040;28;20474;-64
2022/08/22 12:58:34;;;;;;;4.25;2.17;;;;;;;;;;5053670;28;20216;-64
2022/08/22 13:01:04;;;;;;;2.42;2.28;;;;;;;;;;5035635;28;20217;-65
2022/08/22 13:03:31;;;;;;;5.80;2.10;;;;;;;;;;5035295;28;20213;-65
2022/08/22 13:06:02;;;;;;;2.03;1.88;;;;;;;;;;5035039;28;20232;-65
2022/08/22 13:08:30;;;;;;;2.50;2.38;;;;;;;;;;5034500;28;20411;-64
2022/08/22 13:10:58;;;;;;;2.60;2.40;;;;;;;;;;5035021;28;20520;-65
2022/08/22 13:13:26;;;;;;;2.13;2.00;;;;;;;;;;5034538;28;20219;-65
2022/08/22 13:15:55;;;;;;;2.28;2.10;;;;;;;;;;5050931;28;20585;-65
2022/08/22 13:18:24;;;;;;;2.42;2.17;;;;;;;;;;5049864;28;20224;-65
2022/08/22 13:20:51;;;;;;;8.73;4.38;;;;;;;;;;5050254;28;20787;-70
2022/08/22 13:23:22;;;;;;;2.50;2.30;;;;;;;;;;5053529;28;20239;-70
2022/08/22 13:26:05;;;;;;;3.88;2.00;;;;;;;;;;5033860;28;20421;-70
2022/08/22 13:28:34;;;;;;;2.30;2.20;;;;;;;;;;5051291;28;20212;-70
2022/08/22 13:31:01;;;;;;;2.10;2.00;;;;;;;;;;5053760;28;20212;-70
2022/08/22 13:33:30;;;;;;;3.08;2.22;;;;;;;;;;5040538;28;20216;-69
2022/08/22 13:36:00;;;;;;;2.92;1.88;;;;;;;;;;5034048;28;20229;-70
2022/08/22 13:38:29;;;;;;;3.08;2.17;;;;;;;;;;5033807;28;20413;-70
2022/08/22 13:40:56;;;;;;;2.63;2.42;;;;;;;;;;5033566;28;20213;-70
2022/08/22 13:43:25;;;;;;;2.22;2.00;;;;;;;;;;5043140;28;20228;-70
2022/08/22 13:45:53;;;;;;;2.03;1.90;;;;;;;;;;5033628;28;20239;-70
2022/08/22 13:48:21;;;;;;;4.68;2.30;;;;;;;;;;5045916;28;20213;-70
2022/08/22 13:50:56;;;;;;;5.55;2.17;;;;;;;;;;5033692;28;20219;-70
2022/08/22 13:53:26;;;;;;;1.90;1.80;;;;;;;;;;5050937;28;20215;-70
2022/08/22 13:55:56;;;;;;;2.17;1.98;;;;;;;;;;5041569;28;20235;-70
2022/08/22 13:58:26;;;;;;;2.47;1.95;;;;;;;;;;5049855;28;20498;-70
2022/08/22 14:01:14;;;;;;;6.07;2.33;;;;;;;;;;5053399;28;20212;-70
2022/08/22 14:03:45;;;;;;;2.22;2.03;;;;;;;;;;5049711;28;20212;-70
2022/08/22 14:06:18;;;;;;;2.40;2.20;;;;;;;;;;5053187;28;20225;-70
2022/08/22 14:08:45;;;;;;;2.03;1.92;;;;;;;;;;5042520;28;20334;-71
2022/08/22 14:11:19;;;;;;;2.38;2.00;;;;;;;;;;5051653;28;20216;-70
2022/08/22 14:13:47;;;;;;;2.10;2.00;;;;;;;;;;5049647;28;20224;-70
2022/08/22 14:16:20;;;;;;;3.78;2.20;;;;;;;;;;5053374;28;20239;-70
2022/08/22 14:18:48;;;;;;;2.15;2.03;;;;;;;;;;5045990;28;20451;-70
2022/08/22 14:21:35;;;;;;;3.50;2.20;;;;;;;;;;5040102;28;20969;-69
2022/08/22 14:24:04;;;;;;;2.17;2.08;;;;;;;;;;5039293;28;20213;-69
2022/08/22 14:26:34;;;;;;;2.65;1.80;;;;;;;;;;5033025;28;20251;-69
2022/08/22 14:29:01;;;;;;;4.45;2.03;;;;;;;;;;5032944;28;20221;-69
2022/08/22 14:31:29;;;;;;;4.32;2.10;;;;;;;;;;5032855;28;20221;-70
2022/08/22 14:33:56;;;;;;;2.85;2.20;;;;;;;;;;5034312;28;20590;-70
2022/08/22 14:36:25;;;;;;;2.08;1.88;;;;;;;;;;5037120;28;20236;-70
2022/08/22 14:38:52;;;;;;;2.45;2.20;;;;;;;;;;5053879;28;20216;-70
2022/08/22 14:41:28;;;;;;;2.88;1.85;;;;;;;;;;5044815;28;20236;-70
2022/08/22 14:43:58;;;;;;;2.55;1.98;;;;;;;;;;5053301;28;20223;-70
2022/08/22 14:46:26;;;;;;;2.17;1.95;;;;;;;;;;5044821;28;20527;-70
2022/08/22 14:49:06;;;;;;;2.58;1.85;;;;;;;;;;5045149;28;20213;-70
2022/08/22 14:51:32;;;;;;;2.85;2.00;;;;;;;;;;5053757;28;20215;-69
2022/08/22 14:54:09;;;;;;;2.22;1.67;;;;;;;;;;5036594;28;20213;-69
2022/08/22 14:56:36;;;;;;;1.90;1.73;;;;;;;;;;5041047;28;20235;-70
2022/08/22 14:59:07;;;;;;;1.92;1.80;;;;;;;;;;5036452;28;20296;-70
2022/08/22 15:01:35;;;;;;;3.20;2.03;;;;;;;;;;5047460;28;20200;-70
2022/08/22 15:04:03;;;;;;;2.30;2.17;;;;;;;;;;5054681;28;20204;-69
2022/08/22 15:06:33;;;;;;;2.35;2.08;;;;;;;;;;5056060;28;20224;-70
2022/08/22 15:09:00;;;;;;;2.20;2.00;;;;;;;;;;5056107;28;20542;-70
2022/08/22 15:11:29;;;;;;;2.70;2.10;;;;;;;;;;5056801;28;20212;-70
2022/08/22 15:13:58;;;;;;;3.78;2.38;;;;;;;;;;5051730;28;20551;-70